createdAt,value
2022-12-24T16:04:03.625Z,19.60
2022-12-24T16:06:53.595Z,21.35
2022-12-24T16:09:43.189Z,23.75
2022-12-24T16:12:18.016Z,18.75
2022-12-24T16:14:51.147Z,14.93
2022-12-24T16:17:21.541Z,18.25
2022-12-24T16:19:52.241Z,17.58
2022-12-24T16:22:33.145Z,23.92
2022-12-24T16:25:01.454Z,21.42
2022-12-24T16:27:29.396Z,21.77
2022-12-24T16:29:57.198Z,23.67
2022-12-24T16:32:32.107Z,39.00
2022-12-24T16:35:02.733Z,40.95
2022-12-24T16:39:26.792Z,47.30
2022-12-24T16:42:13.356Z,36.50
2022-12-24T16:44:41.496Z,23.83
2022-12-24T16:47:12.955Z,23.95
2022-12-24T16:49:41.169Z,27.63
2022-12-24T16:52:12.659Z,30.58
2022-12-24T16:54:41.795Z,43.50
2022-12-24T16:57:09.833Z,37.25
2022-12-24T16:59:38.731Z,42.05
2022-12-24T17:02:12.575Z,44.25
2022-12-24T17:04:42.244Z,32.73
2022-12-24T17:07:11.267Z,31.58
2022-12-24T17:09:39.108Z,25.48
2022-12-24T17:12:08.542Z,45.40
2022-12-24T17:14:36.379Z,39.70
2022-12-24T17:17:04.714Z,35.53
2022-12-24T17:19:32.876Z,30.05
2022-12-24T17:22:00.647Z,27.70
2022-12-24T17:24:28.451Z,25.42
2022-12-24T17:26:56.644Z,24.75
2022-12-24T17:29:25.677Z,22.73
2022-12-24T17:31:53.333Z,22.38
2022-12-24T17:34:21.063Z,23.00
2022-12-24T17:36:48.723Z,22.02
2022-12-24T17:39:17.337Z,25.25
2022-12-24T17:41:47.524Z,22.98
2022-12-24T17:44:16.022Z,23.27
2022-12-24T17:46:45.134Z,21.30
2022-12-24T17:49:12.933Z,19.20
2022-12-24T17:51:45.363Z,21.55
2022-12-24T17:54:14.211Z,26.33
2022-12-24T17:56:42.191Z,22.27
2022-12-24T17:59:10.045Z,18.92
2022-12-24T18:01:38.204Z,22.33
2022-12-24T18:04:07.688Z,18.83
2022-12-24T18:06:35.602Z,22.98
2022-12-24T18:09:03.588Z,19.58
2022-12-24T18:11:33.038Z,22.73
2022-12-24T18:14:02.294Z,23.30
2022-12-24T18:16:31.865Z,22.02
2022-12-24T18:19:00.170Z,29.13
2022-12-24T18:21:30.929Z,32.72
2022-12-24T18:23:58.882Z,35.60
2022-12-24T18:26:27.990Z,34.50
2022-12-24T18:28:57.523Z,38.28
2022-12-24T18:31:26.942Z,36.42
2022-12-24T18:33:55.787Z,40.83
2022-12-24T18:36:24.034Z,36.00
2022-12-24T18:38:53.336Z,34.20
2022-12-24T18:41:23.821Z,33.00
2022-12-24T18:43:51.717Z,31.67
2022-12-24T18:46:21.354Z,26.35
2022-12-24T18:48:49.203Z,33.93
2022-12-24T18:51:17.689Z,71.68
2022-12-24T18:53:45.448Z,75.95
2022-12-24T18:56:16.849Z,99.10
2022-12-24T18:58:45.741Z,68.07
2022-12-24T19:01:15.311Z,61.00
2022-12-24T19:03:43.291Z,52.40
2022-12-24T19:06:11.666Z,55.13
2022-12-24T19:08:57.168Z,61.38
2022-12-24T19:11:27.723Z,48.58
2022-12-24T19:13:55.430Z,43.40
2022-12-24T19:16:23.295Z,40.40
2022-12-24T19:18:51.175Z,39.72
2022-12-24T19:21:19.886Z,38.72
2022-12-24T19:23:47.789Z,38.00
2022-12-24T19:26:16.940Z,38.33
2022-12-24T19:28:46.454Z,36.00
2022-12-24T19:31:16.169Z,32.05
2022-12-24T19:33:45.428Z,29.00
2022-12-24T19:36:17.289Z,31.45
2022-12-24T19:38:45.451Z,33.17
2022-12-24T19:41:15.233Z,31.67
2022-12-24T19:43:46.600Z,29.05
2022-12-24T19:46:16.324Z,29.65
2022-12-24T19:48:44.764Z,37.53
2022-12-24T19:51:13.270Z,33.42
2022-12-24T19:53:41.394Z,29.00
2022-12-24T19:56:09.707Z,33.72
2022-12-24T19:58:37.553Z,34.95
2022-12-24T20:01:15.234Z,37.05
2022-12-24T20:03:44.296Z,42.60
2022-12-24T20:06:12.776Z,46.80
2022-12-24T20:08:40.737Z,55.13
2022-12-24T20:11:09.636Z,70.43
2022-12-24T20:13:38.680Z,55.45
2022-12-24T20:16:09.302Z,53.47
2022-12-24T20:18:38.676Z,49.72
2022-12-24T20:21:08.753Z,49.28
2022-12-24T20:23:38.337Z,46.22
2022-12-24T20:26:07.995Z,63.53
2022-12-24T20:28:37.097Z,50.45
2022-12-24T20:31:10.695Z,53.60
2022-12-24T20:33:39.952Z,51.83
2022-12-24T20:36:08.271Z,58.85
2022-12-24T20:38:35.992Z,56.40
2022-12-24T20:41:05.374Z,59.92
2022-12-24T20:43:37.319Z,58.92
2022-12-24T20:46:08.557Z,56.70
2022-12-24T20:48:36.490Z,52.80
2022-12-24T20:51:08.532Z,66.25
2022-12-24T20:53:38.925Z,54.55
2022-12-24T20:56:07.187Z,56.63
2022-12-24T20:58:35.033Z,66.90
2022-12-24T21:01:09.387Z,56.67
2022-12-24T21:03:37.288Z,57.17
2022-12-24T21:06:07.286Z,65.10
2022-12-24T21:08:35.124Z,75.75
2022-12-24T21:11:20.413Z,68.63
2022-12-24T21:13:48.212Z,48.38
2022-12-24T21:16:16.588Z,42.08
2022-12-24T21:18:44.649Z,41.72
2022-12-24T21:21:14.156Z,40.08
2022-12-24T21:23:41.829Z,40.88
2022-12-24T21:26:09.598Z,39.65
2022-12-24T21:28:37.329Z,33.15
2022-12-24T21:31:10.253Z,33.47
2022-12-24T21:33:38.741Z,31.13
2022-12-24T21:36:07.024Z,30.70
2022-12-24T21:38:36.661Z,33.53
2022-12-24T21:41:06.313Z,39.08
2022-12-24T21:43:35.068Z,38.20
2022-12-24T21:46:03.841Z,43.95
2022-12-24T21:48:49.322Z,57.70
2022-12-24T21:51:17.043Z,51.53
2022-12-24T21:54:05.642Z,46.33
2022-12-24T21:56:53.639Z,50.30
2022-12-24T21:59:26.215Z,54.92
2022-12-24T22:01:54.746Z,70.20
2022-12-24T22:04:22.751Z,70.32
2022-12-24T22:07:08.023Z,75.50
2022-12-24T22:09:56.016Z,60.30
2022-12-24T22:12:24.028Z,49.70
2022-12-24T22:14:52.071Z,54.85
2022-12-24T22:17:24.759Z,56.78
2022-12-24T22:19:53.469Z,51.38
2022-12-24T22:22:21.212Z,47.95
2022-12-24T22:24:50.339Z,51.85
2022-12-24T22:27:18.091Z,48.53
2022-12-24T22:29:45.892Z,51.88
2022-12-24T22:32:13.635Z,42.33
2022-12-24T22:34:41.555Z,38.03
2022-12-24T22:37:09.408Z,33.88
2022-12-24T22:39:37.394Z,40.45
2022-12-24T22:42:06.609Z,34.10
2022-12-24T22:44:34.440Z,31.80
2022-12-24T22:47:02.245Z,34.70
2022-12-24T22:49:29.973Z,38.57
2022-12-24T22:51:58.711Z,36.42
2022-12-24T22:54:26.788Z,31.55
2022-12-24T22:56:54.653Z,30.70
2022-12-24T22:59:23.813Z,27.60
2022-12-24T23:01:52.649Z,39.38
2022-12-24T23:04:20.802Z,40.35
2022-12-24T23:06:48.741Z,36.20
2022-12-24T23:09:17.397Z,38.58
2022-12-24T23:11:45.899Z,45.42
2022-12-24T23:14:34.452Z,50.27
2022-12-24T23:17:03.907Z,38.80
2022-12-24T23:19:33.626Z,35.47
2022-12-24T23:22:01.795Z,35.92
2022-12-24T23:24:30.053Z,29.73
2022-12-24T23:27:01.377Z,25.88
2022-12-24T23:29:29.229Z,30.33
2022-12-24T23:31:56.986Z,33.83
2022-12-24T23:34:26.249Z,33.28
2022-12-24T23:36:54.006Z,35.70
2022-12-24T23:39:21.962Z,32.95
2022-12-24T23:41:49.751Z,36.63
2022-12-24T23:44:17.469Z,36.13
2022-12-24T23:46:45.246Z,34.50
2022-12-24T23:49:14.777Z,33.20
2022-12-24T23:51:43.930Z,35.97
2022-12-24T23:54:11.729Z,28.67
2022-12-24T23:56:39.599Z,30.77
2022-12-24T23:59:07.305Z,40.92
